Terminal Aerodrome Forecast
Issued by NWS

Home | Current Version | Previous Version | Graphics & Text | Print | Product List | Glossary On
Versions: 1 2 3 4 5 6 7 8 9 10 11 12
000
FTUS43 KMPX 011120
TAFRNH
TAF
KRNH 011120Z 0112/0212 16004KT P6SM SCT100 BKN250
     FM011600 18006KT P6SM VCSH SCT050 BKN080
     FM012000 21008KT P6SM SCT050 BKN080
     FM012200 22006KT P6SM SCT080
     FM020200 VRB02KT P6SM FEW050=

USA.gov is the U.S. government's official web portal to all federal, state and local government web resources and services.